createdAt,value
2017-08-25T00:00:31.423Z,16.60
2017-08-25T00:02:32.368Z,16.50
2017-08-25T00:04:34.052Z,16.50
2017-08-25T00:06:35.001Z,16.50
2017-08-25T00:08:35.941Z,16.50
2017-08-25T00:10:36.877Z,16.50
2017-08-25T00:12:37.800Z,16.60
2017-08-25T00:14:38.737Z,16.60
2017-08-25T00:16:39.660Z,16.50
2017-08-25T00:18:40.588Z,16.50
2017-08-25T00:20:41.528Z,16.50
2017-08-25T00:22:42.456Z,16.50
2017-08-25T00:24:43.398Z,16.40
2017-08-25T00:26:44.332Z,16.40
2017-08-25T00:28:45.264Z,16.50
2017-08-25T00:30:46.200Z,16.50
2017-08-25T00:32:47.128Z,16.50
2017-08-25T00:34:48.060Z,16.50
2017-08-25T00:36:48.996Z,16.50
2017-08-25T00:38:49.920Z,16.50
2017-08-25T00:40:50.856Z,16.50
2017-08-25T00:42:51.789Z,16.50
2017-08-25T00:44:52.744Z,16.50
2017-08-25T00:46:53.672Z,16.50
2017-08-25T00:48:54.600Z,16.50
2017-08-25T00:50:55.553Z,16.40
2017-08-25T00:52:56.504Z,16.50
2017-08-25T00:54:57.432Z,16.50
2017-08-25T00:56:58.380Z,16.40
2017-08-25T00:58:59.313Z,16.50
2017-08-25T01:01:00.256Z,16.50
2017-08-25T01:03:01.200Z,16.50
2017-08-25T01:05:02.136Z,16.50
2017-08-25T01:07:03.116Z,16.40
2017-08-25T01:09:04.057Z,16.40
2017-08-25T01:11:05.000Z,16.40
2017-08-25T01:13:05.940Z,16.40
2017-08-25T01:15:06.876Z,16.40
2017-08-25T01:17:07.812Z,16.40
2017-08-25T01:19:08.736Z,16.30
2017-08-25T01:21:09.684Z,16.30
2017-08-25T01:23:10.628Z,16.30
2017-08-25T01:25:11.569Z,16.30
2017-08-25T01:27:12.510Z,16.30
2017-08-25T01:29:13.469Z,16.20
2017-08-25T01:31:14.405Z,16.10
2017-08-25T01:33:15.360Z,16.00
2017-08-25T01:35:16.284Z,16.00
2017-08-25T01:37:17.236Z,16.10
2017-08-25T01:39:18.172Z,16.10
2017-08-25T01:41:19.129Z,16.10
2017-08-25T01:43:27.029Z,16.10
2017-08-25T01:45:27.974Z,16.10
2017-08-25T01:47:28.936Z,16.10
2017-08-25T01:49:29.875Z,16.00
2017-08-25T01:51:30.825Z,16.00
2017-08-25T01:53:31.764Z,16.00
2017-08-25T01:55:32.724Z,16.00
2017-08-25T01:57:33.750Z,16.00
2017-08-25T01:59:34.728Z,16.00
2017-08-25T02:01:35.664Z,16.00
2017-08-25T02:03:36.612Z,16.00
2017-08-25T02:05:37.541Z,16.00
2017-08-25T02:07:38.471Z,15.90
2017-08-25T02:09:39.416Z,15.90
2017-08-25T02:11:40.544Z,15.80
2017-08-25T02:13:41.471Z,15.80
2017-08-25T02:15:42.416Z,15.80
2017-08-25T02:17:43.340Z,15.70
2017-08-25T02:19:44.281Z,15.60
2017-08-25T02:21:50.260Z,15.60
2017-08-25T02:23:51.221Z,15.50
2017-08-25T02:25:59.089Z,15.50
2017-08-25T02:28:00.017Z,15.50
2017-08-25T02:30:00.961Z,15.50
2017-08-25T02:32:01.896Z,15.50
2017-08-25T02:34:02.845Z,15.50
2017-08-25T02:36:03.776Z,15.50
2017-08-25T02:38:04.701Z,15.60
2017-08-25T02:40:05.649Z,15.50
2017-08-25T02:42:06.579Z,15.60
2017-08-25T02:44:07.508Z,15.60
2017-08-25T02:46:08.440Z,15.60
2017-08-25T02:48:09.365Z,15.60
2017-08-25T02:50:10.305Z,15.60
2017-08-25T02:52:11.221Z,15.60
2017-08-25T02:54:12.162Z,15.60
2017-08-25T02:56:13.093Z,15.60
2017-08-25T02:58:14.011Z,15.60
2017-08-25T03:00:14.993Z,15.60
2017-08-25T03:02:15.929Z,15.60
2017-08-25T03:04:16.864Z,15.50
2017-08-25T03:06:17.801Z,15.50
2017-08-25T03:08:18.736Z,15.50
2017-08-25T03:10:19.677Z,15.50
2017-08-25T03:12:20.613Z,15.50
2017-08-25T03:14:21.544Z,15.40
2017-08-25T03:16:22.492Z,15.40
2017-08-25T03:18:23.433Z,15.30
2017-08-25T03:20:24.380Z,15.20
2017-08-25T03:22:25.312Z,15.30
2017-08-25T03:24:26.236Z,15.30
2017-08-25T03:26:27.181Z,15.30
2017-08-25T03:28:28.100Z,15.30
2017-08-25T03:30:29.033Z,15.30
2017-08-25T03:32:29.968Z,15.20
2017-08-25T03:34:30.908Z,15.20
2017-08-25T03:36:31.881Z,15.20
2017-08-25T03:38:32.814Z,15.20
2017-08-25T03:40:33.744Z,15.20
2017-08-25T03:42:34.680Z,15.20
2017-08-25T03:44:35.611Z,15.20
2017-08-25T03:46:36.544Z,15.20
2017-08-25T03:48:37.479Z,15.20
2017-08-25T03:50:38.416Z,15.20
2017-08-25T03:52:39.352Z,15.20
2017-08-25T03:54:40.292Z,15.20
2017-08-25T03:56:41.248Z,15.20
2017-08-25T03:58:42.192Z,15.20
2017-08-25T04:00:43.116Z,15.20
2017-08-25T04:02:44.073Z,15.20
2017-08-25T04:04:45.009Z,15.10
2017-08-25T04:06:45.941Z,15.10
2017-08-25T04:08:46.873Z,15.10
2017-08-25T04:10:47.806Z,15.10
2017-08-25T04:12:48.740Z,15.00
2017-08-25T04:14:49.660Z,15.00
2017-08-25T04:16:50.600Z,14.90
2017-08-25T04:18:51.532Z,14.90
2017-08-25T04:20:52.469Z,14.90
2017-08-25T04:22:53.400Z,14.90
2017-08-25T04:24:54.336Z,14.90
2017-08-25T04:26:55.265Z,14.90
2017-08-25T04:28:56.271Z,14.90
2017-08-25T04:30:57.199Z,14.90
2017-08-25T04:32:58.157Z,14.90
2017-08-25T04:34:59.085Z,14.80
2017-08-25T04:37:00.017Z,14.70
2017-08-25T04:39:00.944Z,14.70
2017-08-25T04:41:01.881Z,14.60
2017-08-25T04:43:02.808Z,14.60
2017-08-25T04:45:03.748Z,14.60
2017-08-25T04:47:04.685Z,14.60
2017-08-25T04:49:05.620Z,14.60
2017-08-25T04:51:06.544Z,14.60
2017-08-25T04:53:07.473Z,14.60
2017-08-25T04:55:08.408Z,14.60
2017-08-25T04:57:09.333Z,14.60
2017-08-25T04:59:10.276Z,14.60
2017-08-25T05:01:11.196Z,14.60
2017-08-25T05:03:12.124Z,14.60
2017-08-25T05:05:13.057Z,14.60
2017-08-25T05:07:13.980Z,14.60
2017-08-25T05:09:14.925Z,14.60
2017-08-25T05:11:15.852Z,14.70
2017-08-25T05:13:16.772Z,14.70
2017-08-25T05:15:17.909Z,14.70
2017-08-25T05:17:25.817Z,14.70
2017-08-25T05:19:26.743Z,14.70
2017-08-25T05:21:27.673Z,14.70
2017-08-25T05:23:28.599Z,14.80
2017-08-25T05:25:29.532Z,14.80
2017-08-25T05:27:30.452Z,14.90
2017-08-25T05:29:31.580Z,14.90
2017-08-25T05:31:32.506Z,15.00
2017-08-25T05:33:33.437Z,15.00
2017-08-25T05:35:34.436Z,15.10
2017-08-25T05:37:35.372Z,15.10
2017-08-25T05:39:36.520Z,15.20
2017-08-25T05:41:37.468Z,15.20
2017-08-25T05:43:38.409Z,15.30
2017-08-25T05:45:39.362Z,15.30
2017-08-25T05:47:40.300Z,15.40
2017-08-25T05:49:41.216Z,15.40
2017-08-25T05:51:42.156Z,15.40
2017-08-25T05:53:43.080Z,15.50
2017-08-25T05:55:44.009Z,15.50
2017-08-25T05:57:44.936Z,15.70
2017-08-25T05:59:45.864Z,15.80
2017-08-25T06:01:46.792Z,15.80
2017-08-25T06:03:47.720Z,15.90
2017-08-25T06:05:48.664Z,16.00
2017-08-25T06:07:49.591Z,16.00
2017-08-25T06:09:50.516Z,16.10
2017-08-25T06:11:51.689Z,16.20
2017-08-25T06:13:52.612Z,16.20
2017-08-25T06:15:53.552Z,16.20
2017-08-25T06:17:54.477Z,16.30
2017-08-25T06:19:55.396Z,16.40
2017-08-25T06:21:56.324Z,16.40
2017-08-25T06:23:57.257Z,16.50
2017-08-25T06:25:58.184Z,16.60
2017-08-25T06:27:59.112Z,16.60
2017-08-25T06:30:00.033Z,16.70
2017-08-25T06:32:00.979Z,16.80
2017-08-25T06:34:01.912Z,17.00
2017-08-25T06:36:02.840Z,17.20
2017-08-25T06:38:03.776Z,17.30
2017-08-25T06:40:04.712Z,17.50
2017-08-25T06:42:05.648Z,17.70
2017-08-25T06:44:06.760Z,17.60
2017-08-25T06:46:07.680Z,17.70
2017-08-25T06:48:08.620Z,17.80
2017-08-25T06:50:09.556Z,17.80
2017-08-25T06:52:10.477Z,17.80
2017-08-25T06:54:11.412Z,17.80
2017-08-25T06:56:12.344Z,17.80
2017-08-25T06:58:13.272Z,17.90
2017-08-25T07:00:14.485Z,17.90
2017-08-25T07:02:15.421Z,17.90
2017-08-25T07:04:16.368Z,18.20
2017-08-25T07:06:17.296Z,18.30
2017-08-25T07:08:18.224Z,18.20
2017-08-25T07:10:19.160Z,18.30
2017-08-25T07:12:20.093Z,18.20
2017-08-25T07:14:21.425Z,18.30
2017-08-25T07:16:22.723Z,18.50
2017-08-25T07:18:23.680Z,18.60
2017-08-25T07:20:24.608Z,18.50
2017-08-25T07:22:25.636Z,18.50
2017-08-25T07:24:26.632Z,18.50
2017-08-25T07:26:27.589Z,18.60
2017-08-25T07:28:28.539Z,18.60
2017-08-25T07:30:29.569Z,18.60
2017-08-25T07:32:30.587Z,18.70
2017-08-25T07:34:31.522Z,18.70
2017-08-25T07:36:32.449Z,18.70
2017-08-25T07:38:33.389Z,18.70
2017-08-25T07:40:34.340Z,18.70
2017-08-25T07:42:35.272Z,18.70
2017-08-25T07:44:36.216Z,18.80
2017-08-25T07:46:37.149Z,19.10
2017-08-25T07:48:38.080Z,19.10
2017-08-25T07:50:39.024Z,19.30
2017-08-25T07:52:39.948Z,19.60
2017-08-25T07:54:40.893Z,19.80
2017-08-25T07:56:41.819Z,19.90
2017-08-25T07:58:42.760Z,20.00
2017-08-25T08:00:43.696Z,20.20
2017-08-25T08:02:44.617Z,20.70
2017-08-25T08:04:45.548Z,21.00
2017-08-25T08:06:46.485Z,21.30
2017-08-25T08:08:47.424Z,21.40
2017-08-25T08:10:48.357Z,21.90
2017-08-25T08:12:49.280Z,21.90
2017-08-25T08:14:50.201Z,22.10
2017-08-25T08:16:51.136Z,21.90
2017-08-25T08:18:52.070Z,22.20
2017-08-25T08:20:53.005Z,22.40
2017-08-25T08:22:53.928Z,22.40
2017-08-25T08:24:54.855Z,22.10
2017-08-25T08:26:55.792Z,22.40
2017-08-25T08:28:56.725Z,22.80
2017-08-25T08:30:57.668Z,22.50
2017-08-25T08:32:58.603Z,22.30
2017-08-25T08:34:59.532Z,21.90
2017-08-25T08:37:00.505Z,21.80
2017-08-25T08:39:01.441Z,21.60
2017-08-25T08:41:02.388Z,21.60
2017-08-25T08:43:03.318Z,21.40
2017-08-25T08:45:04.240Z,21.60
2017-08-25T08:47:05.168Z,22.00
2017-08-25T08:49:06.096Z,22.40
2017-08-25T08:51:07.033Z,22.50
2017-08-25T08:53:08.025Z,22.40
2017-08-25T08:55:08.944Z,22.20
2017-08-25T08:57:09.888Z,22.20
2017-08-25T08:59:10.824Z,21.90
2017-08-25T09:01:11.756Z,21.90
2017-08-25T09:03:12.696Z,22.00
2017-08-25T09:05:19.648Z,22.30
2017-08-25T09:07:20.593Z,22.30
2017-08-25T09:09:21.542Z,22.90
2017-08-25T09:11:22.473Z,22.30
2017-08-25T09:13:23.425Z,22.50
2017-08-25T09:15:24.364Z,22.50
2017-08-25T09:17:25.309Z,22.40
2017-08-25T09:19:26.239Z,22.20
2017-08-25T09:21:27.160Z,22.90
2017-08-25T09:23:28.092Z,23.40
2017-08-25T09:25:36.072Z,24.00
2017-08-25T09:27:37.010Z,23.90
2017-08-25T09:29:37.933Z,23.90
2017-08-25T09:31:38.856Z,24.30
2017-08-25T09:33:39.885Z,24.00
2017-08-25T09:35:40.816Z,24.80
2017-08-25T09:37:41.741Z,24.70
2017-08-25T09:39:42.686Z,24.80
2017-08-25T09:41:43.621Z,24.90
2017-08-25T09:43:44.560Z,25.50
2017-08-25T09:45:45.492Z,25.10
2017-08-25T09:47:46.413Z,25.70
2017-08-25T09:49:47.344Z,25.40
2017-08-25T09:51:48.277Z,25.20
2017-08-25T09:53:49.216Z,25.40
2017-08-25T09:55:50.161Z,25.40
2017-08-25T09:57:51.100Z,26.00
2017-08-25T09:59:52.043Z,26.10
2017-08-25T10:01:52.984Z,26.10
2017-08-25T10:03:53.931Z,25.50
2017-08-25T10:05:54.856Z,25.70
2017-08-25T10:07:55.780Z,26.10
2017-08-25T10:09:56.716Z,26.20
2017-08-25T10:11:57.644Z,26.30
2017-08-25T10:13:58.580Z,25.90
2017-08-25T10:15:59.512Z,26.40
2017-08-25T10:18:00.452Z,26.30
2017-08-25T10:20:01.400Z,26.20
2017-08-25T10:22:02.340Z,26.20
2017-08-25T10:24:03.273Z,26.70
2017-08-25T10:26:04.216Z,26.60
2017-08-25T10:28:05.179Z,26.00
2017-08-25T10:30:06.125Z,24.80
2017-08-25T10:32:07.062Z,25.20
2017-08-25T10:34:20.561Z,25.90
2017-08-25T10:36:34.049Z,26.30
2017-08-25T10:38:47.545Z,26.40
2017-08-25T10:43:36.859Z,26.70
2017-08-25T10:45:37.837Z,26.80
2017-08-25T10:47:38.768Z,27.10
2017-08-25T10:49:39.692Z,27.20
2017-08-25T10:51:40.638Z,27.00
2017-08-25T10:53:41.567Z,26.00
2017-08-25T10:55:42.518Z,25.80
2017-08-25T10:57:43.453Z,25.90
2017-08-25T10:59:44.392Z,26.20
2017-08-25T11:01:45.337Z,26.80
2017-08-25T11:03:46.292Z,27.20
2017-08-25T11:05:47.237Z,26.30
2017-08-25T11:07:48.165Z,25.60
2017-08-25T11:09:49.112Z,26.20
2017-08-25T11:11:50.044Z,26.30
2017-08-25T11:13:50.976Z,26.30
2017-08-25T11:15:51.913Z,26.10
2017-08-25T11:17:52.856Z,26.20
2017-08-25T11:19:53.788Z,26.80
2017-08-25T11:21:54.737Z,27.10
2017-08-25T11:23:55.824Z,27.10
2017-08-25T11:25:56.820Z,27.60
2017-08-25T11:27:57.744Z,27.60
2017-08-25T11:29:58.677Z,27.90
2017-08-25T11:31:59.616Z,27.60
2017-08-25T11:34:00.540Z,27.60
2017-08-25T11:36:01.493Z,27.60
2017-08-25T11:38:02.434Z,27.80
2017-08-25T11:40:03.373Z,28.20
2017-08-25T11:42:04.329Z,28.30
2017-08-25T11:44:05.273Z,28.30
2017-08-25T11:46:06.212Z,27.30
2017-08-25T11:48:07.165Z,27.00
2017-08-25T11:50:08.100Z,27.30
2017-08-25T11:52:09.030Z,27.70
2017-08-25T11:54:09.956Z,27.40
2017-08-25T11:56:10.888Z,27.70
2017-08-25T11:58:11.832Z,28.40
2017-08-25T12:00:12.772Z,29.10
2017-08-25T12:02:13.708Z,28.60
2017-08-25T12:04:14.663Z,28.40
2017-08-25T12:06:15.597Z,28.50
2017-08-25T12:08:16.546Z,28.20
2017-08-25T12:10:17.480Z,28.40
2017-08-25T12:12:18.422Z,28.60
2017-08-25T12:14:19.380Z,29.10
2017-08-25T12:16:20.304Z,29.30
2017-08-25T12:18:21.273Z,29.60
2017-08-25T12:20:22.221Z,28.40
2017-08-25T12:22:23.189Z,28.20
2017-08-25T12:24:24.125Z,27.90
2017-08-25T12:26:25.058Z,27.80
2017-08-25T12:28:26.014Z,28.30
2017-08-25T12:30:26.949Z,28.90
2017-08-25T12:32:27.961Z,29.10
2017-08-25T12:34:28.912Z,29.20
2017-08-25T12:36:29.849Z,29.10
2017-08-25T12:38:30.788Z,28.90
2017-08-25T12:40:31.720Z,28.90
2017-08-25T12:42:32.660Z,29.50
2017-08-25T12:44:33.596Z,29.80
2017-08-25T12:46:34.525Z,30.00
2017-08-25T12:48:35.504Z,30.50
2017-08-25T12:50:36.459Z,29.80
2017-08-25T12:52:37.422Z,30.10
2017-08-25T12:54:38.372Z,29.30
2017-08-25T12:56:39.313Z,28.60
2017-08-25T12:58:40.316Z,28.40
2017-08-25T13:00:41.271Z,27.70
2017-08-25T13:02:42.209Z,27.50
2017-08-25T13:04:43.152Z,27.30
2017-08-25T13:06:44.090Z,27.50
2017-08-25T13:08:45.023Z,28.00
2017-08-25T13:10:45.973Z,27.70
2017-08-25T13:12:46.925Z,27.70
2017-08-25T13:14:47.881Z,28.20
2017-08-25T13:16:48.824Z,27.90
2017-08-25T13:18:49.790Z,27.90
2017-08-25T13:20:50.736Z,28.40
2017-08-25T13:22:51.666Z,28.90
2017-08-25T13:24:52.620Z,28.80
2017-08-25T13:26:53.553Z,28.80
2017-08-25T13:28:54.480Z,28.30
2017-08-25T13:30:55.466Z,28.00
2017-08-25T13:32:56.402Z,28.10
2017-08-25T13:34:57.375Z,28.20
2017-08-25T13:36:58.380Z,28.60
2017-08-25T13:38:59.324Z,28.60
2017-08-25T13:41:00.284Z,28.40
2017-08-25T13:43:01.226Z,28.20
2017-08-25T13:45:02.191Z,28.20
2017-08-25T13:47:03.125Z,28.10
2017-08-25T13:49:04.060Z,28.20
2017-08-25T13:51:05.000Z,28.10
2017-08-25T13:53:05.932Z,27.80
2017-08-25T13:55:06.898Z,27.80
2017-08-25T13:57:07.835Z,27.90
2017-08-25T13:59:08.785Z,27.60
2017-08-25T14:01:09.722Z,27.80
2017-08-25T14:03:10.661Z,27.80
2017-08-25T14:05:11.618Z,27.60
2017-08-25T14:07:12.560Z,27.30
2017-08-25T14:09:13.501Z,27.60
2017-08-25T14:11:14.457Z,27.80
2017-08-25T14:13:16.411Z,27.80
2017-08-25T14:15:17.391Z,28.00
2017-08-25T14:17:18.355Z,28.20
2017-08-25T14:19:19.557Z,28.30
2017-08-25T14:21:20.506Z,28.40
2017-08-25T14:23:21.467Z,28.50
2017-08-25T14:25:22.408Z,27.80
2017-08-25T14:27:23.348Z,27.90
2017-08-25T14:29:24.286Z,27.40
2017-08-25T14:31:25.224Z,27.40
2017-08-25T14:33:26.166Z,27.20
2017-08-25T14:35:27.094Z,27.20
2017-08-25T14:37:29.815Z,27.30
2017-08-25T14:39:30.831Z,27.20
2017-08-25T14:41:31.759Z,27.00
2017-08-25T14:43:32.700Z,27.10
2017-08-25T14:45:33.636Z,27.00
2017-08-25T14:47:34.572Z,26.80
2017-08-25T14:49:35.741Z,26.80
2017-08-25T14:51:36.687Z,26.80
2017-08-25T14:53:37.638Z,26.70
2017-08-25T14:55:38.594Z,26.50
2017-08-25T14:57:39.555Z,26.50
2017-08-25T14:59:40.494Z,26.40
2017-08-25T15:01:41.420Z,26.40
2017-08-25T15:03:42.376Z,26.20
2017-08-25T15:05:43.340Z,26.20
2017-08-25T15:07:44.284Z,26.20
2017-08-25T15:09:45.242Z,26.20
2017-08-25T15:11:46.180Z,26.30
2017-08-25T15:13:47.121Z,26.10
2017-08-25T15:15:48.065Z,26.20
2017-08-25T15:17:49.035Z,26.20
2017-08-25T15:19:49.992Z,26.20
2017-08-25T15:21:51.055Z,26.30
2017-08-25T15:23:52.013Z,26.30
2017-08-25T15:25:52.948Z,26.20
2017-08-25T15:27:53.885Z,26.00
2017-08-25T15:29:54.884Z,25.90
2017-08-25T15:31:55.836Z,26.00
2017-08-25T15:33:56.771Z,25.90
2017-08-25T15:35:57.728Z,25.70
2017-08-25T15:37:58.735Z,25.50
2017-08-25T15:39:59.664Z,25.30
2017-08-25T15:42:00.688Z,25.20
2017-08-25T15:44:01.637Z,25.10
2017-08-25T15:46:02.596Z,25.00
2017-08-25T15:48:03.544Z,24.90
2017-08-25T15:50:04.488Z,24.90
2017-08-25T15:52:05.499Z,24.80
2017-08-25T15:54:06.434Z,24.70
2017-08-25T15:56:07.376Z,24.80
2017-08-25T15:58:08.314Z,24.60
2017-08-25T16:00:09.255Z,24.60
2017-08-25T16:02:10.196Z,24.60
2017-08-25T16:04:11.139Z,24.50
2017-08-25T16:06:12.105Z,24.50
2017-08-25T16:08:13.048Z,24.40
2017-08-25T16:10:13.992Z,24.40
2017-08-25T16:12:14.941Z,24.20
2017-08-25T16:14:15.887Z,24.20
2017-08-25T16:16:16.829Z,24.20
2017-08-25T16:18:17.854Z,24.20
2017-08-25T16:20:18.808Z,24.20
2017-08-25T16:22:19.753Z,24.10
2017-08-25T16:24:20.692Z,24.20
2017-08-25T16:26:23.008Z,24.10
2017-08-25T16:28:23.952Z,24.10
2017-08-25T16:30:25.351Z,24.00
2017-08-25T16:32:27.533Z,24.00
2017-08-25T16:34:28.725Z,24.00
2017-08-25T16:36:29.708Z,24.00
2017-08-25T16:38:30.699Z,23.80
2017-08-25T16:40:31.936Z,23.80
2017-08-25T16:42:32.879Z,23.70
2017-08-25T16:44:33.816Z,23.60
2017-08-25T16:46:34.777Z,23.60
2017-08-25T16:48:35.717Z,23.50
2017-08-25T16:50:36.709Z,23.60
2017-08-25T16:52:37.657Z,23.50
2017-08-25T16:54:38.592Z,23.40
2017-08-25T16:56:39.524Z,23.40
2017-08-25T16:58:40.470Z,23.30
2017-08-25T17:00:41.430Z,23.20
2017-08-25T17:02:42.378Z,23.10
2017-08-25T17:04:43.360Z,23.00
2017-08-25T17:06:44.288Z,23.00
2017-08-25T17:08:45.245Z,22.90
2017-08-25T17:10:46.452Z,23.00
2017-08-25T17:12:47.387Z,22.90
2017-08-25T17:14:48.355Z,22.80
2017-08-25T17:16:49.328Z,22.80
2017-08-25T17:18:50.284Z,22.70
2017-08-25T17:20:51.224Z,22.70
2017-08-25T17:22:52.280Z,22.60
2017-08-25T17:24:53.241Z,22.50
2017-08-25T17:26:54.239Z,22.50
2017-08-25T17:28:55.199Z,22.50
2017-08-25T17:30:56.160Z,22.40
2017-08-25T17:32:57.108Z,22.40
2017-08-25T17:34:58.132Z,22.30
2017-08-25T17:36:59.085Z,22.30
2017-08-25T17:39:00.021Z,22.30
2017-08-25T17:41:04.342Z,22.20
2017-08-25T17:43:05.286Z,22.10
2017-08-25T17:45:06.239Z,22.10
2017-08-25T17:47:07.197Z,22.10
2017-08-25T17:49:08.160Z,22.00
2017-08-25T17:51:09.112Z,21.90
2017-08-25T17:53:10.053Z,21.90
2017-08-25T17:55:11.000Z,21.80
2017-08-25T17:57:11.936Z,21.80
2017-08-25T17:59:12.869Z,21.70
2017-08-25T18:01:13.826Z,21.70
2017-08-25T18:03:14.774Z,21.60
2017-08-25T18:05:15.732Z,21.60
2017-08-25T18:07:16.678Z,21.50
2017-08-25T18:09:17.612Z,21.40
2017-08-25T18:11:18.594Z,21.40
2017-08-25T18:13:20.336Z,21.30
2017-08-25T18:15:21.332Z,21.30
2017-08-25T18:17:22.361Z,21.20
2017-08-25T18:19:23.426Z,21.10
2017-08-25T18:21:24.371Z,21.00
2017-08-25T18:23:25.360Z,21.00
2017-08-25T18:25:26.693Z,21.00
2017-08-25T18:27:28.716Z,20.90
2017-08-25T18:29:29.656Z,20.90
2017-08-25T18:31:30.593Z,20.90
2017-08-25T18:33:31.553Z,20.80
2017-08-25T18:35:32.493Z,20.80
2017-08-25T18:37:33.464Z,20.70
2017-08-25T18:39:34.503Z,20.60
2017-08-25T18:41:35.755Z,20.60
2017-08-25T18:43:36.773Z,20.50
2017-08-25T18:45:37.771Z,20.50
2017-08-25T18:47:38.753Z,20.50
2017-08-25T18:49:39.693Z,20.50
2017-08-25T18:51:40.633Z,20.40
2017-08-25T18:53:41.577Z,20.30
2017-08-25T18:55:42.521Z,20.30
2017-08-25T18:57:43.655Z,20.30
2017-08-25T19:02:10.623Z,20.10
2017-08-25T19:04:11.562Z,20.00
2017-08-25T19:06:12.501Z,20.00
2017-08-25T19:08:13.443Z,20.00
2017-08-25T19:10:14.384Z,20.00
2017-08-25T19:12:15.557Z,20.00
2017-08-25T19:14:16.498Z,19.90
2017-08-25T19:16:17.432Z,19.80
2017-08-25T19:18:18.372Z,19.80
2017-08-25T19:20:19.312Z,19.70
2017-08-25T19:22:20.260Z,19.70
2017-08-25T19:24:21.195Z,19.60
2017-08-25T19:26:22.119Z,19.60
2017-08-25T19:28:23.064Z,19.60
2017-08-25T19:30:24.020Z,19.70
2017-08-25T19:32:24.960Z,19.60
2017-08-25T19:34:25.894Z,19.60
2017-08-25T19:36:27.052Z,19.60
2017-08-25T19:38:27.996Z,19.50
2017-08-25T19:40:28.943Z,19.60
2017-08-25T19:42:29.875Z,19.50
2017-08-25T19:44:30.804Z,19.50
2017-08-25T19:48:45.396Z,19.30
2017-08-25T19:50:46.352Z,19.20
2017-08-25T19:52:47.321Z,19.10
2017-08-25T19:54:48.252Z,19.10
2017-08-25T19:56:49.192Z,18.90
2017-08-25T19:58:50.232Z,18.90
2017-08-25T20:00:51.176Z,18.70
2017-08-25T20:02:52.207Z,18.80
2017-08-25T20:04:53.152Z,18.80
2017-08-25T20:06:54.095Z,18.80
2017-08-25T20:08:55.069Z,18.70
2017-08-25T20:10:56.055Z,18.70
2017-08-25T20:12:57.007Z,18.70
2017-08-25T20:14:57.956Z,18.70
2017-08-25T20:16:58.891Z,18.60
2017-08-25T20:18:59.843Z,18.50
2017-08-25T20:21:00.792Z,18.40
2017-08-25T20:23:01.779Z,18.30
2017-08-25T20:25:02.726Z,18.20
2017-08-25T20:27:03.664Z,18.20
2017-08-25T20:29:04.600Z,18.30
2017-08-25T20:31:05.828Z,18.30
2017-08-25T20:33:06.779Z,18.20
2017-08-25T20:35:07.707Z,18.20
2017-08-25T20:37:08.637Z,18.10
2017-08-25T20:39:09.579Z,18.10
2017-08-25T20:41:10.520Z,18.20
2017-08-25T20:43:11.460Z,18.20
2017-08-25T20:45:12.407Z,18.20
2017-08-25T20:47:13.601Z,18.20
2017-08-25T20:49:14.575Z,18.10
2017-08-25T20:51:15.516Z,18.10
2017-08-25T20:53:16.459Z,18.00
2017-08-25T20:55:17.452Z,18.00
2017-08-25T20:57:18.396Z,17.90
2017-08-25T20:59:19.356Z,17.80
2017-08-25T21:01:20.325Z,17.60
2017-08-25T21:03:21.355Z,17.70
2017-08-25T21:05:22.310Z,17.80
2017-08-25T21:07:23.252Z,17.80
2017-08-25T21:09:24.212Z,17.60
2017-08-25T21:11:25.160Z,17.60
2017-08-25T21:13:41.230Z,17.70
2017-08-25T21:15:42.224Z,17.70
2017-08-25T21:17:43.170Z,17.70
2017-08-25T21:19:44.112Z,17.70
2017-08-25T21:21:45.057Z,17.70
2017-08-25T21:23:46.014Z,17.70
2017-08-25T21:25:46.957Z,17.70
2017-08-25T21:27:47.903Z,17.70
2017-08-25T21:29:48.837Z,17.60
2017-08-25T21:31:49.783Z,17.50
2017-08-25T21:33:50.736Z,17.50
2017-08-25T21:35:51.680Z,17.30
2017-08-25T21:37:52.619Z,17.30
2017-08-25T21:39:53.600Z,17.40
2017-08-25T21:41:54.555Z,17.40
2017-08-25T21:43:55.498Z,17.30
2017-08-25T21:45:56.452Z,17.20
2017-08-25T21:47:57.388Z,17.10
2017-08-25T21:49:58.345Z,17.10
2017-08-25T21:51:59.293Z,17.20
2017-08-25T21:54:00.255Z,17.20
2017-08-25T21:56:01.217Z,17.20
2017-08-25T21:58:02.156Z,17.10
2017-08-25T22:00:03.205Z,17.00
2017-08-25T22:02:04.132Z,17.00
2017-08-25T22:04:05.081Z,17.10
2017-08-25T22:06:06.036Z,17.10
2017-08-25T22:08:06.975Z,17.10
2017-08-25T22:10:07.922Z,17.10
2017-08-25T22:12:08.852Z,17.10
2017-08-25T22:14:09.791Z,17.10
2017-08-25T22:16:10.733Z,17.00
2017-08-25T22:18:11.685Z,17.00
2017-08-25T22:20:12.637Z,16.90
2017-08-25T22:22:13.578Z,16.90
2017-08-25T22:24:14.582Z,16.90
2017-08-25T22:26:15.536Z,16.90
2017-08-25T22:28:16.475Z,16.80
2017-08-25T22:30:17.426Z,16.70
2017-08-25T22:32:18.379Z,16.60
2017-08-25T22:34:19.320Z,16.60
2017-08-25T22:36:20.259Z,16.60
2017-08-25T22:38:21.209Z,16.60
2017-08-25T22:40:22.186Z,16.70
2017-08-25T22:42:23.129Z,16.60
2017-08-25T22:44:24.077Z,16.70
2017-08-25T22:46:25.048Z,16.60
2017-08-25T22:48:25.996Z,16.60
2017-08-25T22:50:26.950Z,16.50
2017-08-25T22:52:27.962Z,16.50
2017-08-25T22:54:28.911Z,16.50
2017-08-25T22:56:29.864Z,16.50
2017-08-25T22:58:30.812Z,16.60
2017-08-25T23:00:31.752Z,16.50
2017-08-25T23:02:32.681Z,16.50
2017-08-25T23:04:33.622Z,16.50
2017-08-25T23:06:34.569Z,16.50
2017-08-25T23:08:35.509Z,16.50
2017-08-25T23:10:36.465Z,16.50
2017-08-25T23:12:37.409Z,16.50
2017-08-25T23:14:38.355Z,16.60
2017-08-25T23:16:39.323Z,16.60
2017-08-25T23:18:40.259Z,16.60
2017-08-25T23:20:41.204Z,16.70
2017-08-25T23:22:42.137Z,16.60
2017-08-25T23:24:43.089Z,16.60
2017-08-25T23:26:44.027Z,16.60
2017-08-25T23:28:44.959Z,16.60
2017-08-25T23:30:45.919Z,16.60
2017-08-25T23:32:46.852Z,16.60
2017-08-25T23:34:47.793Z,16.50
2017-08-25T23:36:48.732Z,16.50
2017-08-25T23:38:49.669Z,16.40
2017-08-25T23:40:50.621Z,16.50
2017-08-25T23:42:51.588Z,16.50
2017-08-25T23:44:52.525Z,16.50
2017-08-25T23:46:53.508Z,16.40
2017-08-25T23:48:54.453Z,16.40
2017-08-25T23:50:55.426Z,16.40
2017-08-25T23:52:56.364Z,16.40
2017-08-25T23:54:57.303Z,16.40
2017-08-25T23:56:58.285Z,16.40
2017-08-25T23:58:59.234Z,16.40
